createdAt,value
2023-03-11T00:02:00.916Z,2.77
2023-03-11T00:04:28.696Z,3.00
2023-03-11T00:06:56.580Z,2.93
2023-03-11T00:09:24.420Z,2.50
2023-03-11T00:11:52.518Z,2.10
2023-03-11T00:14:20.405Z,2.40
2023-03-11T00:16:48.167Z,2.70
2023-03-11T00:19:17.531Z,2.57
2023-03-11T00:21:45.411Z,2.33
2023-03-11T00:24:13.289Z,2.50
2023-03-11T00:26:41.139Z,2.53
2023-03-11T00:29:08.960Z,2.50
2023-03-11T00:31:36.750Z,2.77
2023-03-11T00:34:04.660Z,2.50
2023-03-11T00:36:34.287Z,2.50
2023-03-11T00:39:06.591Z,1.83
2023-03-11T00:41:34.663Z,2.27
2023-03-11T00:44:03.641Z,3.73
2023-03-11T00:46:31.546Z,17.23
2023-03-11T00:48:59.539Z,32.20
2023-03-11T00:51:28.105Z,30.83
2023-03-11T00:53:57.429Z,24.70
2023-03-11T00:56:25.261Z,18.37
2023-03-11T00:58:53.781Z,19.20
2023-03-11T01:01:22.002Z,15.20
2023-03-11T01:03:49.908Z,14.00
2023-03-11T01:06:17.590Z,12.27
2023-03-11T01:08:45.411Z,10.40
2023-03-11T01:11:14.429Z,8.60
2023-03-11T01:13:45.609Z,7.33
2023-03-11T01:16:13.365Z,5.67
2023-03-11T01:18:41.217Z,5.40
2023-03-11T01:21:09.560Z,5.00
2023-03-11T01:23:37.699Z,4.00
2023-03-11T01:26:05.860Z,4.40
2023-03-11T01:28:35.259Z,3.27
2023-03-11T01:31:03.741Z,3.40
2023-03-11T01:33:31.687Z,2.80
2023-03-11T01:35:59.975Z,2.60
2023-03-11T01:38:27.990Z,2.63
2023-03-11T01:40:56.377Z,2.27
2023-03-11T01:43:54.482Z,2.40
2023-03-11T01:46:23.658Z,2.40
2023-03-11T01:48:51.879Z,2.20
2023-03-11T01:51:24.148Z,1.90
2023-03-11T01:53:52.382Z,2.20
2023-03-11T01:56:20.663Z,1.73
2023-03-11T01:58:52.190Z,1.57
2023-03-11T02:01:21.042Z,1.90
2023-03-11T02:03:49.645Z,1.90
2023-03-11T02:06:18.621Z,1.90
2023-03-11T02:08:46.418Z,1.90
2023-03-11T02:11:17.103Z,1.90
2023-03-11T02:13:45.139Z,1.83
2023-03-11T02:16:15.017Z,1.83
2023-03-11T02:18:43.484Z,1.73
2023-03-11T02:21:18.084Z,1.87
2023-03-11T02:23:48.938Z,1.90
2023-03-11T02:26:17.827Z,2.10
2023-03-11T02:28:47.213Z,2.23
2023-03-11T02:31:15.202Z,2.20
2023-03-11T02:33:43.527Z,2.00
2023-03-11T02:36:33.146Z,1.90
2023-03-11T02:39:00.973Z,2.33
2023-03-11T02:41:28.900Z,2.33
2023-03-11T02:43:58.305Z,1.70
2023-03-11T02:46:25.996Z,2.10
2023-03-11T02:48:54.129Z,1.83
2023-03-11T02:51:21.810Z,2.50
2023-03-11T02:53:51.068Z,1.80
2023-03-11T02:56:18.769Z,2.00
2023-03-11T02:58:46.651Z,1.53
2023-03-11T03:01:16.071Z,2.10
2023-03-11T03:03:44.430Z,1.87
2023-03-11T03:06:12.553Z,1.60
2023-03-11T03:08:40.738Z,1.77
2023-03-11T03:11:08.658Z,2.00
2023-03-11T03:13:36.538Z,1.80
2023-03-11T03:16:04.757Z,1.73
2023-03-11T03:18:33.840Z,1.60
2023-03-11T03:21:02.114Z,1.70
2023-03-11T03:23:30.104Z,1.67
2023-03-11T03:25:58.320Z,1.57
2023-03-11T03:28:26.186Z,1.57
2023-03-11T03:30:54.134Z,1.47
2023-03-11T03:33:22.022Z,1.40
2023-03-11T03:35:51.922Z,1.87
2023-03-11T03:38:19.724Z,1.70
2023-03-11T03:40:48.039Z,1.50
2023-03-11T03:43:15.719Z,2.03
2023-03-11T03:45:43.828Z,1.50
2023-03-11T03:48:11.544Z,1.50
2023-03-11T03:50:40.762Z,2.30
2023-03-11T03:53:10.539Z,1.70
2023-03-11T03:55:38.386Z,1.87
2023-03-11T03:58:06.640Z,1.63
2023-03-11T04:00:35.441Z,1.20
2023-03-11T04:03:03.705Z,1.90
2023-03-11T04:05:31.599Z,1.60
2023-03-11T04:08:00.584Z,1.50
2023-03-11T04:10:29.690Z,1.37
2023-03-11T04:12:57.627Z,1.60
2023-03-11T04:15:26.039Z,1.60
2023-03-11T04:17:53.857Z,1.57
2023-03-11T04:20:21.734Z,1.50
2023-03-11T04:22:49.602Z,1.50
2023-03-11T04:25:17.594Z,2.07
2023-03-11T04:27:50.342Z,1.30
2023-03-11T04:30:18.422Z,1.27
2023-03-11T04:32:46.734Z,1.67
2023-03-11T04:35:14.479Z,1.30
2023-03-11T04:37:42.199Z,1.33
2023-03-11T04:40:11.188Z,1.37
2023-03-11T04:42:39.081Z,1.37
2023-03-11T04:45:11.350Z,1.37
2023-03-11T04:47:39.222Z,1.50
2023-03-11T04:50:07.853Z,1.50
2023-03-11T04:52:35.740Z,1.40
2023-03-11T04:55:03.669Z,1.50
2023-03-11T04:57:31.580Z,1.40
2023-03-11T04:59:59.852Z,1.40
2023-03-11T05:02:29.042Z,1.60
2023-03-11T05:04:56.805Z,1.53
2023-03-11T05:07:25.073Z,1.87
2023-03-11T05:09:53.015Z,1.77
2023-03-11T05:12:20.923Z,1.60
2023-03-11T05:14:48.880Z,1.20
2023-03-11T05:17:19.309Z,1.40
2023-03-11T05:19:48.840Z,1.40
2023-03-11T05:22:17.198Z,1.40
2023-03-11T05:24:45.251Z,1.70
2023-03-11T05:27:13.559Z,1.30
2023-03-11T05:29:42.257Z,1.30
2023-03-11T05:32:10.719Z,1.30
2023-03-11T05:34:38.596Z,1.60
2023-03-11T05:37:08.448Z,1.33
2023-03-11T05:39:37.798Z,1.30
2023-03-11T05:42:06.380Z,1.17
2023-03-11T05:44:34.360Z,1.43
2023-03-11T05:47:02.770Z,1.37
2023-03-11T05:49:30.693Z,1.10
2023-03-11T05:51:59.132Z,1.00
2023-03-11T05:54:28.546Z,1.20
2023-03-11T05:56:56.940Z,1.30
2023-03-11T05:59:24.714Z,1.20
2023-03-11T06:01:52.501Z,1.07
2023-03-11T06:04:20.743Z,1.53
2023-03-11T06:06:48.641Z,1.43
2023-03-11T06:09:16.855Z,1.37
2023-03-11T06:11:46.305Z,1.47
2023-03-11T06:14:14.706Z,1.37
2023-03-11T06:16:42.973Z,1.50
2023-03-11T06:19:10.930Z,1.70
2023-03-11T06:21:38.677Z,1.40
2023-03-11T06:24:07.621Z,1.00
2023-03-11T06:26:35.572Z,1.30
2023-03-11T06:29:05.157Z,1.60
2023-03-11T06:31:33.091Z,1.63
2023-03-11T06:34:01.367Z,1.70
2023-03-11T06:36:29.206Z,2.00
2023-03-11T06:38:57.409Z,1.80
2023-03-11T06:41:25.314Z,1.70
2023-03-11T06:43:53.118Z,1.63
2023-03-11T06:46:23.017Z,1.60
2023-03-11T06:48:52.201Z,1.60
2023-03-11T06:51:20.738Z,1.93
2023-03-11T06:53:49.656Z,1.60
2023-03-11T06:56:17.946Z,1.40
2023-03-11T06:58:45.666Z,1.47
2023-03-11T07:01:15.006Z,1.40
2023-03-11T07:03:44.164Z,1.40
2023-03-11T07:06:13.855Z,1.30
2023-03-11T07:08:41.574Z,1.40
2023-03-11T07:11:10.375Z,1.40
2023-03-11T07:13:38.230Z,1.20
2023-03-11T07:16:07.455Z,1.93
2023-03-11T07:18:35.868Z,1.20
2023-03-11T07:21:05.894Z,1.10
2023-03-11T07:23:34.099Z,1.67
2023-03-11T07:26:01.801Z,1.10
2023-03-11T07:28:29.712Z,1.27
2023-03-11T07:30:57.697Z,1.70
2023-03-11T07:33:25.621Z,1.50
2023-03-11T07:35:53.751Z,1.50
2023-03-11T07:38:23.446Z,1.47
2023-03-11T07:40:59.297Z,1.60
2023-03-11T07:43:27.779Z,1.70
2023-03-11T07:46:03.940Z,1.67
2023-03-11T07:48:32.102Z,1.30
2023-03-11T07:51:04.192Z,1.30
2023-03-11T07:53:34.222Z,1.60
2023-03-11T07:56:02.113Z,1.90
2023-03-11T07:58:30.531Z,1.90
2023-03-11T08:00:58.451Z,2.20
2023-03-11T08:03:26.448Z,1.97
2023-03-11T08:05:54.771Z,2.10
2023-03-11T08:08:22.697Z,1.73
2023-03-11T08:10:51.974Z,1.67
2023-03-11T08:13:19.877Z,1.70
2023-03-11T08:15:47.887Z,1.70
2023-03-11T08:18:15.702Z,2.10
2023-03-11T08:20:45.214Z,2.07
2023-03-11T08:23:13.300Z,2.13
2023-03-11T08:25:41.258Z,2.27
2023-03-11T08:28:10.638Z,2.33
2023-03-11T08:30:38.680Z,2.40
2023-03-11T08:33:07.291Z,2.07
2023-03-11T08:35:35.552Z,1.90
2023-03-11T08:38:03.605Z,2.10
2023-03-11T08:40:31.693Z,2.10
2023-03-11T08:42:59.508Z,2.17
2023-03-11T08:45:28.736Z,2.03
2023-03-11T08:47:56.964Z,2.30
2023-03-11T08:50:24.996Z,2.10
2023-03-11T08:52:52.680Z,2.00
2023-03-11T08:55:25.114Z,2.10
2023-03-11T08:57:53.230Z,2.17
2023-03-11T09:00:21.879Z,1.90
2023-03-11T09:02:51.308Z,2.30
2023-03-11T09:05:19.398Z,1.93
2023-03-11T09:07:47.520Z,2.30
2023-03-11T09:10:15.740Z,3.00
2023-03-11T09:12:44.020Z,2.70
2023-03-11T09:15:11.875Z,2.80
2023-03-11T09:17:39.986Z,2.53
2023-03-11T09:20:12.544Z,2.53
2023-03-11T09:22:40.310Z,2.50
2023-03-11T09:25:09.175Z,2.60
2023-03-11T09:27:37.200Z,2.43
2023-03-11T09:30:06.132Z,2.90
2023-03-11T09:32:34.216Z,4.27
2023-03-11T09:35:02.620Z,5.60
2023-03-11T09:37:32.033Z,5.20
2023-03-11T09:39:59.921Z,4.93
2023-03-11T09:42:30.663Z,4.70
2023-03-11T09:45:00.914Z,5.20
2023-03-11T09:47:39.441Z,5.60
2023-03-11T09:50:22.578Z,4.70
2023-03-11T09:53:03.726Z,4.80
2023-03-11T09:55:39.131Z,4.60
2023-03-11T09:58:11.976Z,4.40
2023-03-11T10:00:40.077Z,4.43
2023-03-11T10:03:08.395Z,3.83
2023-03-11T10:05:36.638Z,4.43
2023-03-11T10:08:11.711Z,4.20
2023-03-11T10:10:41.777Z,4.37
2023-03-11T10:13:13.173Z,3.87
2023-03-11T10:15:48.529Z,3.53
2023-03-11T10:18:26.460Z,3.27
2023-03-11T10:20:56.350Z,3.60
2023-03-11T10:23:28.212Z,3.43
2023-03-11T10:26:01.694Z,3.27
2023-03-11T10:28:31.852Z,2.63
2023-03-11T10:31:02.696Z,2.97
2023-03-11T10:33:32.250Z,2.50
2023-03-11T10:36:02.035Z,2.80
2023-03-11T10:38:32.672Z,2.50
2023-03-11T10:41:02.595Z,2.50
2023-03-11T10:43:32.932Z,2.30
2023-03-11T10:46:03.871Z,2.43
2023-03-11T10:48:31.843Z,3.60
2023-03-11T10:51:03.642Z,3.87
2023-03-11T10:53:33.162Z,5.23
2023-03-11T10:56:01.379Z,7.47
2023-03-11T10:58:30.160Z,7.13
2023-03-11T11:01:02.283Z,5.57
2023-03-11T11:03:30.537Z,6.10
2023-03-11T11:06:02.495Z,5.70
2023-03-11T11:08:32.469Z,4.77
2023-03-11T11:11:01.319Z,4.77
2023-03-11T11:13:32.989Z,5.10
2023-03-11T11:16:01.941Z,4.50
2023-03-11T11:18:32.343Z,4.10
2023-03-11T11:21:03.097Z,4.60
2023-03-11T11:23:52.567Z,3.40
2023-03-11T11:26:23.080Z,2.97
2023-03-11T11:29:08.456Z,2.70
2023-03-11T11:31:37.203Z,3.97
2023-03-11T11:34:07.140Z,3.23
2023-03-11T11:36:36.922Z,3.00
2023-03-11T11:39:11.047Z,2.23
2023-03-11T11:41:39.308Z,1.90
2023-03-11T11:44:07.762Z,2.03
2023-03-11T11:46:39.393Z,2.70
2023-03-11T11:49:11.357Z,4.33
2023-03-11T11:51:41.849Z,2.47
2023-03-11T11:54:17.670Z,2.30
2023-03-11T11:56:46.092Z,2.10
2023-03-11T11:59:19.028Z,2.13
2023-03-11T12:02:01.161Z,2.50
2023-03-11T12:04:38.761Z,3.43
2023-03-11T12:07:17.546Z,2.70
2023-03-11T12:09:50.587Z,2.80
2023-03-11T12:12:23.242Z,3.13
2023-03-11T12:14:52.703Z,2.30
2023-03-11T12:17:20.513Z,2.40
2023-03-11T12:19:51.393Z,3.00
2023-03-11T12:22:51.050Z,2.50
2023-03-11T12:25:29.968Z,2.27
2023-03-11T12:28:01.054Z,2.50
2023-03-11T12:30:30.895Z,2.80
2023-03-11T12:33:00.391Z,2.53
2023-03-11T12:35:30.631Z,2.90
2023-03-11T12:38:06.706Z,2.40
2023-03-11T12:41:01.626Z,2.83
2023-03-11T12:44:05.419Z,2.90
2023-03-11T12:47:09.929Z,2.60
2023-03-11T12:49:38.514Z,3.20
2023-03-11T12:52:17.906Z,2.47
2023-03-11T12:54:46.375Z,2.93
2023-03-11T12:57:32.672Z,2.43
2023-03-11T13:00:23.094Z,2.47
2023-03-11T13:03:43.017Z,2.57
2023-03-11T13:06:22.665Z,2.53
2023-03-11T13:08:51.027Z,2.63
2023-03-11T13:11:31.326Z,2.10
2023-03-11T13:14:12.351Z,2.33
2023-03-11T13:16:41.173Z,2.70
2023-03-11T13:19:42.522Z,2.57
2023-03-11T13:22:41.613Z,3.00
2023-03-11T13:25:32.836Z,2.77
2023-03-11T13:28:22.249Z,2.90
2023-03-11T13:30:54.049Z,2.83
2023-03-11T13:33:26.509Z,3.20
2023-03-11T13:36:01.187Z,2.50
2023-03-11T13:38:39.855Z,2.90
2023-03-11T13:41:17.244Z,2.50
2023-03-11T13:43:45.939Z,2.70
2023-03-11T13:46:20.756Z,2.87
2023-03-11T13:48:49.790Z,2.37
2023-03-11T13:51:18.619Z,2.70
2023-03-11T13:53:47.939Z,2.60
2023-03-11T13:56:18.329Z,2.00
2023-03-11T13:58:46.465Z,2.57
2023-03-11T14:01:19.246Z,2.13
2023-03-11T14:03:48.133Z,2.13
2023-03-11T14:06:19.316Z,2.00
2023-03-11T14:08:53.971Z,2.00
2023-03-11T14:11:21.944Z,2.40
2023-03-11T14:13:50.452Z,2.03
2023-03-11T14:16:21.211Z,2.40
2023-03-11T14:18:50.541Z,2.20
2023-03-11T14:21:19.480Z,2.67
2023-03-11T14:23:48.874Z,2.07
2023-03-11T14:26:17.434Z,2.20
2023-03-11T14:28:47.599Z,2.23
2023-03-11T14:31:30.557Z,2.13
2023-03-11T14:34:04.584Z,1.90
2023-03-11T14:36:40.439Z,1.90
2023-03-11T14:39:23.672Z,2.40
2023-03-11T14:41:51.846Z,1.97
2023-03-11T14:44:19.684Z,1.63
2023-03-11T14:46:49.146Z,1.90
2023-03-11T14:49:22.654Z,1.90
2023-03-11T14:51:52.411Z,2.40
2023-03-11T14:54:22.302Z,2.37
2023-03-11T14:56:53.724Z,2.00
2023-03-11T14:59:23.281Z,2.10
2023-03-11T15:01:52.713Z,2.20
2023-03-11T15:04:27.399Z,2.30
2023-03-11T15:06:55.526Z,1.90
2023-03-11T15:09:23.958Z,2.10
2023-03-11T15:11:55.615Z,1.80
2023-03-11T15:14:24.176Z,1.90
2023-03-11T15:16:54.872Z,2.03
2023-03-11T15:19:31.586Z,2.47
2023-03-11T15:22:00.539Z,2.03
2023-03-11T15:24:29.569Z,2.37
2023-03-11T15:26:58.600Z,2.13
2023-03-11T15:29:26.404Z,2.07
2023-03-11T15:31:57.665Z,2.03
2023-03-11T15:34:28.125Z,1.90
2023-03-11T15:36:59.604Z,2.57
2023-03-11T15:39:29.546Z,1.90
2023-03-11T15:42:02.434Z,2.10
2023-03-11T15:44:31.794Z,1.97
2023-03-11T15:47:01.560Z,2.40
2023-03-11T15:49:29.758Z,2.17
2023-03-11T15:52:00.311Z,2.30
2023-03-11T15:54:28.270Z,2.37
2023-03-11T15:56:56.497Z,2.40
2023-03-11T15:59:24.876Z,2.07
2023-03-11T16:01:52.989Z,1.93
2023-03-11T16:04:23.016Z,2.40
2023-03-11T16:07:02.911Z,2.07
2023-03-11T16:09:35.078Z,1.97
2023-03-11T16:12:02.946Z,2.20
2023-03-11T16:14:31.115Z,2.30
2023-03-11T16:16:58.860Z,2.20
2023-03-11T16:19:28.809Z,2.00
2023-03-11T16:21:56.647Z,2.40
2023-03-11T16:24:25.150Z,2.20
2023-03-11T16:26:53.379Z,2.10
2023-03-11T16:29:23.610Z,2.03
2023-03-11T16:31:51.572Z,2.27
2023-03-11T16:34:19.563Z,2.10
2023-03-11T16:36:49.373Z,2.23
2023-03-11T16:39:17.336Z,2.00
2023-03-11T16:41:46.012Z,2.27
2023-03-11T16:44:13.986Z,2.70
2023-03-11T16:46:41.937Z,2.20
2023-03-11T16:49:09.944Z,1.90
2023-03-11T16:51:46.667Z,2.00
2023-03-11T16:54:15.807Z,2.10
2023-03-11T16:56:43.598Z,1.90
2023-03-11T16:59:11.270Z,2.10
2023-03-11T17:01:39.654Z,1.90
2023-03-11T17:04:07.831Z,2.17
2023-03-11T17:06:35.925Z,2.03
2023-03-11T17:09:03.936Z,1.87
2023-03-11T17:11:34.813Z,2.00
2023-03-11T17:14:15.555Z,2.10
2023-03-11T17:16:44.466Z,1.90
2023-03-11T17:19:12.439Z,2.13
2023-03-11T17:21:41.224Z,2.07
2023-03-11T17:24:09.955Z,2.13
2023-03-11T17:26:39.366Z,2.00
2023-03-11T17:29:07.760Z,2.00
2023-03-11T17:31:35.689Z,2.23
2023-03-11T17:34:03.943Z,2.00
2023-03-11T17:36:31.647Z,2.40
2023-03-11T17:38:59.543Z,2.00
2023-03-11T17:41:27.498Z,1.90
2023-03-11T17:43:56.839Z,2.10
2023-03-11T17:46:24.947Z,2.50
2023-03-11T17:48:53.664Z,2.10
2023-03-11T17:51:22.502Z,2.37
2023-03-11T17:53:51.478Z,2.20
2023-03-11T17:56:20.418Z,2.50
2023-03-11T17:58:48.882Z,2.27
2023-03-11T18:01:19.246Z,2.23
2023-03-11T18:03:47.729Z,2.10
2023-03-11T18:06:15.927Z,2.27
2023-03-11T18:08:44.476Z,2.03
2023-03-11T18:11:13.402Z,2.27
2023-03-11T18:13:41.198Z,2.33
2023-03-11T18:16:10.453Z,2.33
2023-03-11T18:18:40.640Z,2.30
2023-03-11T18:21:09.795Z,2.40
2023-03-11T18:23:38.290Z,2.23
2023-03-11T18:26:07.384Z,2.20
2023-03-11T18:28:36.042Z,1.90
2023-03-11T18:31:08.450Z,2.00
2023-03-11T18:33:36.460Z,1.93
2023-03-11T18:36:14.806Z,2.23
2023-03-11T18:38:42.785Z,2.70
2023-03-11T18:41:11.103Z,2.03
2023-03-11T18:43:39.112Z,2.10
2023-03-11T18:46:09.067Z,1.80
2023-03-11T18:48:36.778Z,2.10
2023-03-11T18:51:05.194Z,1.73
2023-03-11T18:53:34.592Z,1.90
2023-03-11T18:56:03.458Z,1.97
2023-03-11T18:58:31.804Z,2.20
2023-03-11T19:01:04.924Z,2.23
2023-03-11T19:03:33.268Z,1.90
2023-03-11T19:06:01.289Z,2.13
2023-03-11T19:08:29.846Z,2.17
2023-03-11T19:10:59.148Z,2.40
2023-03-11T19:13:40.672Z,2.57
2023-03-11T19:16:13.726Z,2.00
2023-03-11T19:18:41.654Z,1.70
2023-03-11T19:21:10.197Z,2.00
2023-03-11T19:23:38.496Z,2.00
2023-03-11T19:26:07.829Z,2.27
2023-03-11T19:28:35.829Z,2.10
2023-03-11T19:31:03.990Z,2.17
2023-03-11T19:33:32.964Z,2.27
2023-03-11T19:36:01.600Z,2.10
2023-03-11T19:38:30.480Z,2.00
2023-03-11T19:41:02.479Z,2.10
2023-03-11T19:43:31.989Z,1.90
2023-03-11T19:45:59.871Z,2.20
2023-03-11T19:48:28.028Z,1.90
2023-03-11T19:50:55.904Z,2.20
2023-03-11T19:53:23.805Z,1.97
2023-03-11T19:55:53.363Z,2.20
2023-03-11T19:58:21.421Z,1.93
2023-03-11T20:00:50.870Z,1.90
2023-03-11T20:03:20.873Z,1.90
2023-03-11T20:05:49.125Z,1.97
2023-03-11T20:08:18.270Z,2.23
2023-03-11T20:10:47.234Z,1.77
2023-03-11T20:13:15.187Z,2.00
2023-03-11T20:15:43.633Z,1.77
2023-03-11T20:18:12.677Z,1.90
2023-03-11T20:20:43.046Z,2.47
2023-03-11T20:23:10.867Z,1.93
2023-03-11T20:25:39.707Z,2.13
2023-03-11T20:28:07.607Z,1.97
2023-03-11T20:30:35.998Z,2.23
2023-03-11T20:33:03.747Z,2.30
2023-03-11T20:35:32.934Z,2.40
2023-03-11T20:38:02.734Z,2.80
2023-03-11T20:40:30.527Z,2.33
2023-03-11T20:42:58.956Z,2.80
2023-03-11T20:45:26.872Z,2.27
2023-03-11T20:47:55.766Z,2.00
2023-03-11T20:50:23.981Z,1.93
2023-03-11T20:52:53.735Z,2.43
2023-03-11T20:55:22.736Z,2.50
2023-03-11T20:57:51.726Z,2.57
2023-03-11T21:00:20.480Z,2.40
2023-03-11T21:02:48.729Z,2.50
2023-03-11T21:05:16.574Z,2.20
2023-03-11T21:07:44.545Z,2.43
2023-03-11T21:10:14.512Z,2.20
2023-03-11T21:12:42.419Z,2.37
2023-03-11T21:15:11.329Z,2.33
2023-03-11T21:17:39.468Z,2.33
2023-03-11T21:20:08.379Z,2.47
2023-03-11T21:22:36.164Z,2.53
2023-03-11T21:25:07.246Z,3.73
2023-03-11T21:27:37.601Z,8.57
2023-03-11T21:30:06.358Z,7.47
2023-03-11T21:32:34.364Z,4.87
2023-03-11T21:35:02.792Z,5.23
2023-03-11T21:37:30.678Z,4.10
2023-03-11T21:39:58.494Z,6.43
2023-03-11T21:42:26.903Z,4.70
2023-03-11T21:44:56.018Z,5.10
2023-03-11T21:47:23.990Z,4.33
2023-03-11T21:49:52.076Z,3.80
2023-03-11T21:52:20.827Z,4.00
2023-03-11T21:54:48.685Z,3.93
2023-03-11T21:57:17.017Z,3.10
2023-03-11T21:59:44.883Z,3.63
2023-03-11T22:02:16.251Z,3.20
2023-03-11T22:04:44.591Z,3.50
2023-03-11T22:07:12.550Z,3.07
2023-03-11T22:09:40.724Z,3.23
2023-03-11T22:12:08.914Z,3.60
2023-03-11T22:14:36.848Z,3.30
2023-03-11T22:17:04.978Z,5.93
2023-03-11T22:19:34.531Z,4.27
2023-03-11T22:22:02.524Z,4.40
2023-03-11T22:24:30.810Z,4.63
2023-03-11T22:26:58.715Z,5.13
2023-03-11T22:29:26.826Z,4.97
2023-03-11T22:31:54.554Z,5.20
2023-03-11T22:34:22.353Z,4.70
2023-03-11T22:36:51.397Z,4.50
2023-03-11T22:39:19.071Z,4.67
2023-03-11T22:41:46.748Z,4.67
2023-03-11T22:44:15.043Z,4.27
2023-03-11T22:46:42.951Z,4.90
2023-03-11T22:49:10.962Z,4.57
2023-03-11T22:51:38.806Z,3.87
2023-03-11T22:54:07.868Z,3.90
2023-03-11T22:56:35.541Z,4.20
2023-03-11T22:59:03.244Z,4.00
2023-03-11T23:01:31.453Z,4.23
2023-03-11T23:03:59.185Z,4.27
2023-03-11T23:06:27.349Z,4.30
2023-03-11T23:08:56.119Z,4.37
2023-03-11T23:11:25.526Z,4.00
2023-03-11T23:13:53.203Z,4.30
2023-03-11T23:16:22.880Z,3.17
2023-03-11T23:18:52.044Z,3.30
2023-03-11T23:21:21.184Z,3.83
2023-03-11T23:23:49.182Z,3.53
2023-03-11T23:26:17.327Z,3.73
2023-03-11T23:28:46.641Z,3.77
2023-03-11T23:31:15.358Z,4.10
2023-03-11T23:33:43.271Z,4.17
2023-03-11T23:36:11.984Z,3.60
2023-03-11T23:38:40.026Z,3.60
2023-03-11T23:41:08.619Z,3.30
2023-03-11T23:43:36.790Z,3.67
2023-03-11T23:46:06.903Z,4.10
2023-03-11T23:48:34.882Z,3.50
2023-03-11T23:51:02.718Z,3.73
2023-03-11T23:53:30.400Z,3.40
2023-03-11T23:55:58.075Z,3.90
2023-03-11T23:58:25.753Z,4.13
